首页
METAR-TAF:

METAR-TAF

机场 :

費耶特維爾, 北卡罗来纳州, 美国

纬度: 34-59-22N, 经度: 078-52-48W, 海拔: 57米

当前天气观测

该预报发布于27分钟前的00:53 UTC
风速11节,风向南转西南
温度 24°C
湿度 83%
气压 1003 hPa
能見度: 16.1公里
天空无云

METAR: KFAY 300053Z 20011KT 10SM CLR 24/21 A2961 RMK AO2 SLP019 T02440211

时间: 21:20 (01:20 UTC)

预报

该预报发布于1小时和6分钟前的00:14 UTC
预报有效从30日的 00点(UTC)到 30日的 24点(UTC)
风速13节,风向南转西南,有时为20节阵风
能見度: 10公里
多云层高于2000英尺
多云层高于25000英尺
从 30日的 0400点(UTC)
风速20节,风向西转西南,有时为35节阵风
能見度: 2.4公里
散云层高于800英尺
多云层高于1500英尺
阴天层高于2500英尺, 积雨云.
雷暴, 雨
从 30日的 0600点(UTC)
风速15节,风向西,有时为22节阵风
能見度: 10公里
多云层高于2500英尺
从 30日的 1300点(UTC)
风速12节,风向西北,有时为21节阵风
能見度: 10公里
天空无云

TAF: KFAY 300014Z 3000/3024 20013G20KT P6SM BKN020 BKN250 FM300400 24020G35KT 1 1/2SM TSRA SCT008 BKN015 OVC025CB FM300600 27015G22KT P6SM BKN025 FM301300 32012G21KT P6SM SKC

超过4000个机场的气象观测和天气预报(METAR&TAF报告)。

可查询的气象台以黄色和红色小点在地图上表示。

将鼠标移到小点上方,可查看气象台名称。

然后点击查看天气观测和预报。

如需切换地图:点击带黑十字的绿色按钮放大地图;点击带横线的绿色按钮缩小地图;或者点击绿色箭头查看邻近地区的地图。


METAR-TAF: